Time;durP1;ratioP1;P1;durP2;ratioP2;P2;SDS_P1;SDS_P2;PMS_P1;PMS_P2;Temp;Humidity;BMP_temperature;BMP_pressure;BME280_temperature;BME280_humidity;BME280_pressure;Samples;Min_cycle;Max_cycle;Signal;HPM_P1;HPM_P2
2023/07/23 05:00:00;;;;;;;6.22;3.35;;;;;;;21.92;64.85;100601.38;5606337;31;80252;-59
2023/07/23 05:03:03;;;;;;;6.00;3.90;;;;;;;21.92;64.85;100601.38;5584145;31;33319;-59
2023/07/23 05:06:06;;;;;;;6.75;3.50;;;;;;;21.60;64.12;100606.00;5584046;31;34296;-59
2023/07/23 05:09:08;;;;;;;6.00;3.90;;;;;;;21.75;63.67;100610.69;5584115;32;35178;-59
2023/07/23 05:12:10;;;;;;;5.03;3.47;;;;;;;21.86;63.11;100611.78;5583892;31;33579;-59
2023/07/23 05:15:14;;;;;;;6.80;4.07;;;;;;;21.96;63.93;100607.72;5570937;32;34266;-59
2023/07/23 05:18:16;;;;;;;6.32;3.65;;;;;;;22.09;62.82;100614.69;5564061;32;34371;-59
2023/07/23 05:21:18;;;;;;;7.03;4.30;;;;;;;22.19;62.22;100616.13;5564504;32;33749;-59
2023/07/23 05:24:21;;;;;;;7.18;3.58;;;;;;;22.26;62.48;100610.84;5564105;32;33528;-61
2023/07/23 05:27:23;;;;;;;5.62;3.72;;;;;;;22.36;62.86;100620.44;5564374;32;33638;-61
2023/07/23 05:30:25;;;;;;;5.10;3.53;;;;;;;22.46;62.36;100615.22;5564259;32;34369;-61
2023/07/23 05:33:28;;;;;;;4.93;3.42;;;;;;;22.58;62.51;100621.72;5563991;32;33633;-61
2023/07/23 05:36:30;;;;;;;5.72;3.90;;;;;;;22.70;62.13;100632.53;5564035;32;33756;-61
2023/07/23 05:39:32;;;;;;;5.47;3.37;;;;;;;22.86;61.77;100627.81;5563963;32;34297;-61
2023/07/23 05:42:35;;;;;;;6.07;3.90;;;;;;;22.95;61.49;100633.91;5563896;32;33688;-61
2023/07/23 05:45:37;;;;;;;6.45;4.00;;;;;;;22.99;61.26;100628.53;5564058;32;34396;-61
2023/07/23 05:48:39;;;;;;;8.15;3.97;;;;;;;22.99;60.53;100636.72;5573929;32;33701;-61
2023/07/23 05:51:42;;;;;;;7.70;3.67;;;;;;;23.06;60.48;100638.81;5583386;32;34258;-61
2023/07/23 05:54:44;;;;;;;27.35;4.80;;;;;;;23.13;60.06;100638.97;5583366;31;33748;-61
2023/07/23 05:57:47;;;;;;;7.65;3.90;;;;;;;23.31;62.39;100640.13;5583175;32;33566;-61
2023/07/23 06:00:49;;;;;;;11.20;3.80;;;;;;;23.39;60.38;100641.06;5583267;32;33583;-61
2023/07/23 06:03:51;;;;;;;6.47;3.67;;;;;;;23.49;59.94;100643.22;5583346;32;33594;-61
2023/07/23 06:06:55;;;;;;;6.82;3.70;;;;;;;23.64;59.57;100641.53;5583020;32;33539;-61
2023/07/23 06:09:58;;;;;;;5.68;3.17;;;;;;;23.77;58.28;100644.94;5575674;32;33653;-61
2023/07/23 06:13:00;;;;;;;4.87;3.47;;;;;;;23.84;57.82;100645.06;5568004;32;33773;-61
2023/07/23 06:16:03;;;;;;;5.90;3.58;;;;;;;23.82;57.22;100645.44;5569711;31;33684;-61
2023/07/23 06:19:05;;;;;;;5.25;3.60;;;;;;;23.80;58.03;100647.72;5570051;32;34397;-61
2023/07/23 06:22:08;;;;;;;6.95;3.47;;;;;;;23.89;58.04;100642.81;5570062;32;33211;-61
2023/07/23 06:25:10;;;;;;;4.93;3.60;;;;;;;24.04;58.34;100643.06;5570087;32;33722;-61
2023/07/23 06:28:13;;;;;;;5.72;3.70;;;;;;;24.18;58.29;100648.78;5569932;32;34361;-61
2023/07/23 06:31:15;;;;;;;4.68;3.22;;;;;;;24.22;56.69;100633.19;5570014;32;34299;-61
2023/07/23 06:34:17;;;;;;;5.40;3.47;;;;;;;24.14;56.39;100634.25;5570137;32;33638;-61
2023/07/23 06:37:20;;;;;;;5.32;3.62;;;;;;;24.18;56.95;100648.00;5570020;32;33559;-61
2023/07/23 06:40:22;;;;;;;6.90;3.83;;;;;;;24.18;56.60;100645.25;5569808;32;33636;-61
2023/07/23 06:43:26;;;;;;;6.25;4.35;;;;;;;24.18;55.87;100642.53;5569875;32;33644;-61
2023/07/23 06:46:28;;;;;;;5.68;3.55;;;;;;;24.27;56.67;100648.53;5569843;32;33722;-61
2023/07/23 06:49:31;;;;;;;6.82;4.47;;;;;;;24.32;54.62;100648.22;5569886;32;33615;-61
2023/07/23 06:52:33;;;;;;;5.43;3.42;;;;;;;24.34;54.16;100643.19;5569513;32;34396;-61
2023/07/23 06:56:01;;;;;;;5.12;3.35;;;;;;;24.39;55.66;100640.13;5569831;32;34391;-61
2023/07/23 06:59:04;;;;;;;5.43;3.50;;;;;;;24.56;54.01;100644.31;5569770;32;33703;-61
2023/07/23 07:02:06;;;;;;;8.27;3.83;;;;;;;24.58;53.73;100642.78;5569574;32;33824;-61
2023/07/23 07:05:09;;;;;;;4.55;3.55;;;;;;;24.65;52.46;100644.84;5569752;32;33691;-61
2023/07/23 07:08:12;;;;;;;5.97;3.60;;;;;;;24.60;51.36;100645.16;5569688;32;34413;-61
2023/07/23 07:11:14;;;;;;;5.85;3.92;;;;;;;24.57;51.38;100640.44;5568456;32;34373;-61
2023/07/23 07:14:18;;;;;;;4.87;3.12;;;;;;;24.64;52.78;100645.22;5569549;32;33695;-61
2023/07/23 07:17:20;;;;;;;5.15;3.60;;;;;;;24.78;52.54;100648.19;5565591;32;33547;-61
2023/07/23 07:20:23;;;;;;;8.15;4.10;;;;;;;24.87;55.63;100642.41;5549514;32;33543;-61
2023/07/23 07:23:30;;;;;;;7.43;3.62;;;;;;;24.98;58.90;100638.66;5549314;32;33580;-61
2023/07/23 07:26:32;;;;;;;5.68;3.60;;;;;;;25.13;60.20;100647.88;5549881;32;33620;-60
2023/07/23 07:29:38;;;;;;;11.38;3.55;;;;;;;25.21;59.09;100646.81;5549914;32;33544;-60
2023/07/23 07:32:41;;;;;;;28.15;7.05;;;;;;;25.25;56.32;100641.38;5549825;32;33104;-60
2023/07/23 07:35:43;;;;;;;13.73;4.37;;;;;;;25.30;58.17;100643.81;5549844;32;33672;-60
2023/07/23 07:38:45;;;;;;;9.45;4.12;;;;;;;25.42;58.20;100634.50;5549830;32;33942;-60
2023/07/23 07:41:48;;;;;;;4.60;3.37;;;;;;;25.50;59.91;100636.19;5549795;32;34597;-60
2023/07/23 07:44:50;;;;;;;9.65;4.15;;;;;;;25.59;52.80;100636.66;5549872;32;33685;-60
2023/07/23 07:47:53;;;;;;;5.43;3.67;;;;;;;25.57;54.73;100635.47;5549678;32;33554;-61
2023/07/23 07:51:06;;;;;;;34.42;11.45;;;;;;;25.47;52.40;100632.22;5549640;32;33684;-60
2023/07/23 07:54:10;;;;;;;9.55;3.92;;;;;;;25.55;54.92;100639.38;5549593;32;34922;-59
2023/07/23 07:57:12;;;;;;;5.95;4.20;;;;;;;25.67;53.11;100630.09;5549475;32;33621;-60
2023/07/23 08:00:15;;;;;;;6.82;4.22;;;;;;;25.78;56.81;100639.22;5549631;32;33088;-60
2023/07/23 08:03:18;;;;;;;5.62;3.62;;;;;;;25.77;53.19;100634.91;5549633;32;33583;-60
2023/07/23 08:06:22;;;;;;;5.53;3.45;;;;;;;25.82;53.17;100630.25;5549550;32;33673;-60
2023/07/23 08:09:27;;;;;;;8.07;4.05;;;;;;;25.85;52.61;100635.00;5549368;32;33585;-60
2023/07/23 08:12:30;;;;;;;5.62;3.95;;;;;;;25.91;52.86;100626.03;5549536;32;33589;-60
2023/07/23 08:15:34;;;;;;;7.20;3.70;;;;;;;25.96;51.46;100622.94;5549235;32;34581;-60
2023/07/23 08:18:36;;;;;;;6.15;4.12;;;;;;;25.96;50.54;100624.88;5549360;32;33713;-60
2023/07/23 08:21:40;;;;;;;6.93;4.22;;;;;;;25.94;50.78;100627.22;5549326;32;33779;-60
2023/07/23 08:24:42;;;;;;;5.05;3.28;;;;;;;26.01;52.39;100622.59;5549409;32;34239;-60
2023/07/23 08:27:45;;;;;;;7.80;3.83;;;;;;;26.04;47.97;100626.53;5549258;32;34285;-60
2023/07/23 08:30:48;;;;;;;7.87;3.97;;;;;;;26.07;50.62;100623.03;5549414;32;33355;-60
2023/07/23 08:33:52;;;;;;;5.57;3.80;;;;;;;26.14;49.30;100622.31;5548885;32;33615;-60
2023/07/23 08:36:55;;;;;;;6.93;3.70;;;;;;;26.10;48.25;100625.03;5549254;32;33731;-60
2023/07/23 08:39:57;;;;;;;6.40;3.10;;;;;;;26.27;47.42;100622.81;5549168;32;34321;-60
2023/07/23 08:43:15;;;;;;;10.60;4.20;;;;;;;26.29;46.98;100625.94;5549245;32;33598;-60
2023/07/23 08:46:21;;;;;;;19.52;5.70;;;;;;;26.23;47.67;100618.06;5549234;32;34339;-60
2023/07/23 08:49:25;;;;;;;11.95;4.40;;;;;;;26.28;49.91;100619.66;5549061;32;34167;-60
2023/07/23 08:52:28;;;;;;;6.50;4.20;;;;;;;26.32;48.40;100617.72;5549058;32;34346;-60
2023/07/23 08:55:31;;;;;;;8.52;3.85;;;;;;;26.38;47.04;100623.66;5548874;32;34268;-61
2023/07/23 08:58:33;;;;;;;10.68;3.87;;;;;;;26.41;48.10;100622.91;5548426;32;34376;-61
2023/07/23 09:01:38;;;;;;;5.55;3.47;;;;;;;26.48;47.44;100625.72;5548884;32;33829;-61
2023/07/23 09:04:41;;;;;;;5.10;3.55;;;;;;;26.53;46.76;100632.84;5547553;32;33072;-61
2023/07/23 09:07:43;;;;;;;8.10;3.80;;;;;;;26.50;45.32;100625.34;5548564;32;33713;-61
2023/07/23 09:10:45;;;;;;;8.40;3.53;;;;;;;26.48;46.40;100629.25;5548257;32;33954;-61
2023/07/23 09:13:49;;;;;;;11.02;4.07;;;;;;;26.54;47.19;100634.41;5548261;32;33729;-61
2023/07/23 09:16:52;;;;;;;4.60;3.17;;;;;;;26.58;46.92;100627.75;5548334;32;33515;-61
2023/07/23 09:19:54;;;;;;;6.72;3.70;;;;;;;26.52;46.10;100628.50;5548028;32;33629;-61
2023/07/23 09:23:04;;;;;;;6.93;3.62;;;;;;;26.55;46.43;100623.00;5548281;32;34291;-61
2023/07/23 09:26:09;;;;;;;4.90;3.60;;;;;;;26.59;47.20;100621.09;5548288;32;34218;-61
2023/07/23 09:29:11;;;;;;;7.50;3.58;;;;;;;26.67;46.38;100621.91;5548288;32;34418;-61
2023/07/23 09:32:22;;;;;;;5.60;3.12;;;;;;;26.67;46.45;100621.91;5548391;32;33613;-61
2023/07/23 09:35:30;;;;;;;5.40;3.35;;;;;;;26.79;45.98;100624.34;5547917;32;33841;-61
2023/07/23 09:38:33;;;;;;;4.47;3.25;;;;;;;26.78;43.20;100624.72;5548058;32;33771;-61
2023/07/23 09:41:38;;;;;;;6.22;3.28;;;;;;;26.84;43.51;100621.22;5547795;32;34233;-61
2023/07/23 09:44:41;;;;;;;4.65;3.33;;;;;;;26.90;42.93;100627.16;5547564;32;33612;-61
2023/07/23 09:47:44;;;;;;;4.28;3.20;;;;;;;26.92;42.51;100625.59;5550435;32;33691;-61
2023/07/23 09:50:56;;;;;;;5.47;3.30;;;;;;;26.99;43.06;100611.09;5550598;32;33347;-61
2023/07/23 09:54:03;;;;;;;5.53;3.35;;;;;;;27.03;44.05;100620.16;5550442;32;33728;-61
2023/07/23 09:57:07;;;;;;;7.62;3.58;;;;;;;27.01;43.15;100607.94;5550361;32;33880;-61
2023/07/23 10:00:10;;;;;;;5.35;3.70;;;;;;;27.04;44.20;100612.66;5550551;32;33090;-61
2023/07/23 10:03:15;;;;;;;4.70;3.50;;;;;;;27.08;43.80;100611.50;5550490;32;34106;-61
2023/07/23 10:06:21;;;;;;;5.78;3.30;;;;;;;27.07;43.47;100609.94;5550432;32;34300;-59
2023/07/23 10:09:23;;;;;;;;;;;;;;;27.13;43.17;100605.66;5550495;32;33631;-59
2023/07/23 10:12:25;;;;;;;5.30;3.45;;;;;;;27.09;43.23;100599.34;5550100;32;34007;-59
2023/07/23 10:15:28;;;;;;;8.10;4.20;;;;;;;27.14;43.81;100598.97;5550145;32;33821;-59
2023/07/23 10:18:34;;;;;;;5.30;3.35;;;;;;;27.27;43.25;100601.38;5550547;32;33628;-59
2023/07/23 10:21:36;;;;;;;6.05;3.90;;;;;;;27.29;43.26;100596.28;5550131;32;33788;-59
2023/07/23 10:24:40;;;;;;;6.35;3.50;;;;;;;27.28;42.69;100589.97;5550167;32;33131;-60
2023/07/23 10:27:53;;;;;;;5.03;3.75;;;;;;;27.30;43.18;100589.59;5550110;32;34523;-60
2023/07/23 10:31:33;;;;;;;4.80;3.30;;;;;;;27.39;42.56;100592.78;5550009;32;33788;-59
2023/07/23 10:34:38;;;;;;;5.20;3.78;;;;;;;27.46;41.25;100583.75;5549835;32;34232;-59
2023/07/23 10:37:41;;;;;;;5.30;3.67;;;;;;;27.42;41.13;100589.25;5550096;32;33632;-59
2023/07/23 10:40:43;;;;;;;5.28;3.67;;;;;;;27.45;41.41;100571.12;5549926;32;33643;-59
2023/07/23 10:43:48;;;;;;;6.40;3.40;;;;;;;27.54;42.18;100568.81;5549997;32;33970;-59
2023/07/23 10:46:51;;;;;;;5.22;3.55;;;;;;;27.59;42.28;100569.22;5550118;32;34267;-60
2023/07/23 10:50:27;;;;;;;4.80;3.10;;;;;;;27.61;41.94;100566.06;5550234;32;33618;-59
2023/07/23 10:53:33;;;;;;;5.47;3.25;;;;;;;27.66;41.20;100573.16;5515822;32;33563;-59
2023/07/23 10:56:38;;;;;;;6.78;3.08;;;;;;;27.67;40.80;100553.47;5549617;32;34452;-59
2023/07/23 10:59:41;;;;;;;4.28;3.22;;;;;;;27.80;41.00;100560.19;5549367;32;33545;-60
2023/07/23 11:02:48;;;;;;;4.37;2.97;;;;;;;27.87;40.68;100562.16;5549623;32;33579;-60
2023/07/23 11:05:52;;;;;;;5.20;3.28;;;;;;;27.90;41.18;100560.59;5549859;32;33758;-59
2023/07/23 11:08:57;;;;;;;5.07;2.97;;;;;;;27.91;41.79;100556.66;5550133;32;34277;-59
2023/07/23 11:12:02;;;;;;;5.00;3.22;;;;;;;27.96;43.62;100554.31;5549952;32;33797;-59
2023/07/23 11:15:15;;;;;;;4.28;2.83;;;;;;;27.86;39.87;100549.59;5550062;32;34377;-61
2023/07/23 11:18:21;;;;;;;4.05;2.97;;;;;;;27.92;39.79;100547.22;5549656;32;33686;-62
2023/07/23 11:21:27;;;;;;;5.53;2.85;;;;;;;27.90;39.99;100533.06;5550328;32;33762;-62
2023/07/23 11:24:31;;;;;;;4.32;3.17;;;;;;;27.85;41.65;100534.25;5550143;32;34358;-62
2023/07/23 11:27:34;;;;;;;5.15;2.72;;;;;;;27.89;39.97;100537.00;5550289;32;34363;-61
2023/07/23 11:30:36;;;;;;;5.97;3.30;;;;;;;27.95;39.50;100525.19;5550069;32;33618;-63
2023/07/23 11:33:39;;;;;;;6.35;3.28;;;;;;;28.01;39.79;100517.28;5550145;32;34332;-62
2023/07/23 11:36:42;;;;;;;4.40;3.15;;;;;;;28.13;43.30;100516.88;5550227;32;33899;-62
2023/07/23 11:39:52;;;;;;;5.85;3.22;;;;;;;28.05;39.19;100502.34;5549980;32;33702;-62
2023/07/23 11:42:54;;;;;;;6.60;3.35;;;;;;;27.95;41.72;100505.91;5550201;32;33630;-62
2023/07/23 11:45:56;;;;;;;4.65;3.10;;;;;;;28.09;40.15;100502.31;5550094;32;33961;-62
2023/07/23 11:49:03;;;;;;;5.40;3.12;;;;;;;28.08;39.58;100492.50;5550217;32;34447;-62
2023/07/23 11:52:06;;;;;;;5.15;3.12;;;;;;;28.15;40.85;100494.44;5549887;32;33613;-62
2023/07/23 11:55:38;;;;;;;5.62;3.12;;;;;;;28.15;42.96;100495.22;5550027;32;34363;-62
2023/07/23 11:58:41;;;;;;;4.30;2.80;;;;;;;28.23;39.87;100490.47;5536701;32;33375;-62
2023/07/23 12:01:43;;;;;;;4.62;3.22;;;;;;;28.35;38.75;100492.81;5549871;32;34550;-62
2023/07/23 12:04:47;;;;;;;5.15;3.00;;;;;;;28.35;38.35;100481.78;5550021;32;33210;-62
2023/07/23 12:07:51;;;;;;;4.57;3.15;;;;;;;28.37;42.89;100487.66;5549077;32;33741;-62
2023/07/23 12:10:53;;;;;;;3.75;2.83;;;;;;;28.35;39.46;100484.53;5549890;32;34328;-62
2023/07/23 12:13:57;;;;;;;4.10;3.03;;;;;;;28.49;39.64;100484.50;5549733;32;33659;-63
2023/07/23 12:17:02;;;;;;;4.37;2.90;;;;;;;28.44;38.85;100473.09;5549839;32;34338;-62
2023/07/23 12:20:10;;;;;;;4.55;3.33;;;;;;;28.36;39.90;100464.06;5549708;32;34386;-63
2023/07/23 12:23:13;;;;;;;4.70;2.83;;;;;;;28.31;46.03;100464.44;5549757;32;33743;-62
2023/07/23 12:26:16;;;;;;;5.43;3.70;;;;;;;28.37;41.29;100462.06;5549753;32;33627;-61
2023/07/23 12:29:21;;;;;;;5.53;2.95;;;;;;;28.35;39.53;100456.97;5549787;32;34419;-61
2023/07/23 12:32:24;;;;;;;5.40;3.25;;;;;;;28.51;41.76;100454.56;5549563;32;34351;-62
2023/07/23 12:35:26;;;;;;;4.97;3.30;;;;;;;28.54;40.79;100452.97;5549629;32;33733;-61
2023/07/23 12:38:28;;;;;;;4.07;3.00;;;;;;;28.60;42.34;100440.34;5549367;32;34030;-61
2023/07/23 12:41:31;;;;;;;5.22;3.03;;;;;;;28.50;38.25;100450.22;5549482;32;33592;-61
2023/07/23 12:44:33;;;;;;;3.62;2.83;;;;;;;28.58;39.76;100448.25;5549386;32;34460;-61
2023/07/23 12:47:36;;;;;;;4.55;3.05;;;;;;;28.64;39.87;100443.84;5549448;32;33620;-61
2023/07/23 12:50:38;;;;;;;4.60;3.00;;;;;;;28.68;38.38;100444.66;5549285;32;34080;-61
2023/07/23 12:53:41;;;;;;;4.65;2.90;;;;;;;28.66;37.48;100437.94;5549253;32;33642;-62
2023/07/23 12:56:43;;;;;;;4.05;2.92;;;;;;;28.66;37.27;100433.22;5549265;32;33703;-61
2023/07/23 12:59:46;;;;;;;4.20;2.72;;;;;;;28.69;38.98;100437.16;5548640;32;34419;-61
2023/07/23 13:02:48;;;;;;;4.53;3.00;;;;;;;28.67;38.19;100431.25;5549186;32;33619;-61
2023/07/23 13:05:51;;;;;;;8.05;3.20;;;;;;;28.68;38.59;100433.59;5549122;32;33424;-61
2023/07/23 13:08:53;;;;;;;4.72;3.12;;;;;;;28.77;42.17;100433.97;5549095;32;34385;-61
2023/07/23 13:11:55;;;;;;;4.57;3.03;;;;;;;28.80;37.85;100429.59;5548993;32;33684;-62
2023/07/23 13:14:57;;;;;;;6.60;3.28;;;;;;;28.86;40.90;100424.44;5548900;32;34444;-61
2023/07/23 13:18:00;;;;;;;4.30;3.10;;;;;;;28.74;37.60;100425.69;5548889;32;33611;-62
2023/07/23 13:21:03;;;;;;;4.43;3.12;;;;;;;28.75;38.56;100416.22;5550694;32;34203;-61
2023/07/23 13:24:08;;;;;;;5.40;3.20;;;;;;;28.87;40.85;100412.97;5551320;32;33661;-61
2023/07/23 13:27:11;;;;;;;5.90;3.15;;;;;;;28.90;37.97;100409.41;5551302;32;33681;-61
2023/07/23 13:30:13;;;;;;;7.45;3.17;;;;;;;28.85;37.10;100403.56;5551301;32;34015;-61
2023/07/23 13:33:16;;;;;;;3.78;2.70;;;;;;;28.92;44.14;100398.00;5551295;32;34315;-61
2023/07/23 13:36:18;;;;;;;4.43;3.12;;;;;;;28.75;38.89;100405.19;5551168;32;33730;-59
2023/07/23 13:39:20;;;;;;;4.85;2.90;;;;;;;28.80;38.92;100396.47;5551205;32;33804;-59
2023/07/23 13:42:23;;;;;;;4.90;3.20;;;;;;;28.76;40.98;100393.75;5550964;32;33592;-60
2023/07/23 13:45:25;;;;;;;5.15;3.12;;;;;;;28.87;38.57;100384.59;5551162;32;34274;-59
2023/07/23 13:48:27;;;;;;;5.80;2.97;;;;;;;28.75;38.26;100383.13;5551047;32;33669;-60
2023/07/23 13:51:30;;;;;;;4.37;3.00;;;;;;;28.80;39.87;100391.75;5551120;32;34293;-59
2023/07/23 13:54:35;;;;;;;5.57;2.85;;;;;;;28.75;37.28;100380.38;5551034;32;33707;-59
2023/07/23 13:57:38;;;;;;;3.65;2.95;;;;;;;28.83;41.81;100375.59;5550867;32;33741;-59
2023/07/23 14:00:40;;;;;;;4.62;3.10;;;;;;;28.77;39.37;100375.22;5550852;32;33925;-59
2023/07/23 14:03:43;;;;;;;4.43;3.05;;;;;;;28.76;37.38;100373.66;5550964;32;33576;-59
2023/07/23 14:06:45;;;;;;;4.72;3.05;;;;;;;28.82;37.73;100369.28;5550988;32;34288;-59
2023/07/23 14:09:47;;;;;;;4.35;3.20;;;;;;;28.94;43.63;100368.00;5550872;32;34307;-59
2023/07/23 14:12:50;;;;;;;5.50;3.33;;;;;;;28.83;37.46;100370.06;5551083;32;33706;-59
2023/07/23 14:15:52;;;;;;;4.43;3.28;;;;;;;28.94;38.33;100368.00;5550705;32;34393;-59
2023/07/23 14:18:54;;;;;;;4.25;2.97;;;;;;;29.02;37.79;100377.84;5550897;32;34381;-59
2023/07/23 14:21:57;;;;;;;4.82;3.45;;;;;;;28.94;38.15;100368.00;5550728;32;33640;-59
2023/07/23 14:24:59;;;;;;;4.78;3.25;;;;;;;28.92;38.11;100359.34;5550747;32;34433;-59
2023/07/23 14:28:01;;;;;;;4.50;3.20;;;;;;;28.94;41.09;100357.78;5550752;32;33799;-59
2023/07/23 14:31:04;;;;;;;4.47;3.12;;;;;;;28.94;37.75;100357.78;5550422;32;33768;-59
2023/07/23 14:34:07;;;;;;;4.60;3.22;;;;;;;29.06;41.14;100333.66;5550656;32;33655;-59
2023/07/23 14:37:10;;;;;;;4.65;3.33;;;;;;;29.04;36.75;100364.44;5550815;32;33622;-59
2023/07/23 14:40:12;;;;;;;4.50;3.00;;;;;;;29.06;37.35;100366.78;5550594;32;33693;-59
2023/07/23 14:43:15;;;;;;;5.30;3.28;;;;;;;29.10;37.73;100351.72;5550638;32;33838;-59
2023/07/23 14:46:17;;;;;;;4.68;3.03;;;;;;;29.07;37.55;100347.03;5550597;32;34439;-61
2023/07/23 14:49:19;;;;;;;6.03;2.95;;;;;;;29.19;38.94;100346.53;5550587;32;33726;-62
2023/07/23 14:52:22;;;;;;;4.35;3.00;;;;;;;29.03;39.02;100349.81;5550631;32;33639;-61
2023/07/23 14:55:24;;;;;;;4.35;3.20;;;;;;;28.93;36.79;100345.16;5550634;32;33797;-61
2023/07/23 14:58:30;;;;;;;4.05;3.03;;;;;;;28.99;37.36;100340.75;5550326;32;33631;-61
2023/07/23 15:01:32;;;;;;;4.05;2.75;;;;;;;29.15;36.90;100333.97;5550447;32;33782;-61
2023/07/23 15:04:35;;;;;;;5.65;3.22;;;;;;;29.09;36.85;100333.62;5550361;32;33575;-61
2023/07/23 15:07:37;;;;;;;4.75;2.85;;;;;;;29.05;36.96;100330.09;5550474;32;33767;-61
2023/07/23 15:10:41;;;;;;;4.87;3.33;;;;;;;29.10;37.71;100321.38;5550388;32;33611;-61
2023/07/23 15:13:43;;;;;;;4.87;3.42;;;;;;;29.05;36.33;100321.06;5550289;32;33626;-61
2023/07/23 15:16:46;;;;;;;4.85;3.00;;;;;;;29.08;36.35;100326.53;5550426;32;33835;-61
2023/07/23 15:19:48;;;;;;;3.97;2.83;;;;;;;29.16;36.39;100327.25;5550189;32;33739;-61
2023/07/23 15:22:54;;;;;;;6.03;3.50;;;;;;;29.13;38.27;100320.56;5550279;32;33642;-61
2023/07/23 15:26:03;;;;;;;5.55;2.97;;;;;;;29.11;36.50;100319.41;5550176;32;33678;-61
2023/07/23 15:29:05;;;;;;;4.80;3.15;;;;;;;29.06;41.98;100314.34;5550347;32;34414;-61
2023/07/23 15:32:08;;;;;;;6.05;3.60;;;;;;;28.93;36.06;100325.81;5550170;32;33982;-61
2023/07/23 15:35:10;;;;;;;4.30;3.05;;;;;;;28.92;38.47;100316.00;5550202;32;34284;-61
2023/07/23 15:38:13;;;;;;;4.55;2.95;;;;;;;28.88;37.66;100312.47;5550120;32;33677;-61
2023/07/23 15:41:17;;;;;;;5.37;3.33;;;;;;;28.90;39.82;100303.78;5549952;32;34473;-61
2023/07/23 15:44:19;;;;;;;4.07;3.00;;;;;;;28.80;36.59;100297.94;5549023;32;34321;-61
2023/07/23 15:47:22;;;;;;;4.57;3.20;;;;;;;28.82;37.08;100303.06;5549863;32;34269;-62
2023/07/23 15:50:24;;;;;;;4.40;3.03;;;;;;;28.80;36.33;100300.69;5549549;32;33995;-61
2023/07/23 15:53:26;;;;;;;6.00;3.20;;;;;;;28.80;36.29;100303.47;5549725;32;33933;-61
2023/07/23 15:56:29;;;;;;;7.35;3.20;;;;;;;28.79;36.15;100295.59;5549600;32;33655;-61
2023/07/23 15:59:31;;;;;;;4.00;3.03;;;;;;;28.81;36.52;100298.75;5549867;32;34425;-61
2023/07/23 16:02:33;;;;;;;4.72;2.80;;;;;;;28.79;38.81;100296.38;5549318;32;33723;-61
2023/07/23 16:05:36;;;;;;;3.92;3.10;;;;;;;28.78;40.45;100285.78;5549606;32;33424;-62
2023/07/23 16:08:39;;;;;;;4.35;3.08;;;;;;;28.81;38.24;100276.69;5549433;32;33437;-61
2023/07/23 16:11:41;;;;;;;4.62;3.37;;;;;;;28.77;37.22;100273.16;5549298;32;33596;-61
2023/07/23 16:14:44;;;;;;;5.50;2.80;;;;;;;28.74;36.24;100265.69;5549522;32;34050;-61
2023/07/23 16:17:46;;;;;;;4.62;3.08;;;;;;;28.75;39.86;100267.28;5549570;32;33832;-62
2023/07/23 16:20:48;;;;;;;4.80;3.10;;;;;;;28.86;37.86;100262.44;5549309;32;34451;-61
2023/07/23 16:23:51;;;;;;;4.47;3.00;;;;;;;28.74;38.08;100271.19;5548998;32;34302;-62
2023/07/23 16:26:54;;;;;;;4.37;3.17;;;;;;;28.71;37.82;100260.97;5549239;32;33316;-61
2023/07/23 16:29:56;;;;;;;6.53;3.35;;;;;;;28.67;36.13;100260.22;5549357;32;33919;-61
2023/07/23 16:32:59;;;;;;;5.45;2.90;;;;;;;28.74;37.83;100263.72;5549563;32;34254;-61
2023/07/23 16:36:03;;;;;;;4.40;2.50;;;;;;;28.70;38.66;100260.19;5549160;32;33776;-61
2023/07/23 16:39:07;;;;;;;4.03;2.72;;;;;;;28.69;45.21;100261.41;5549473;32;33591;-61
2023/07/23 16:42:13;;;;;;;6.18;3.17;;;;;;;28.66;43.01;100259.44;5548814;32;33801;-61
2023/07/23 16:45:16;;;;;;;6.47;3.33;;;;;;;28.66;37.86;100255.91;5548785;32;33600;-61
2023/07/23 16:48:19;;;;;;;5.95;3.72;;;;;;;28.56;38.19;100260.31;5549112;32;33602;-61
2023/07/23 16:51:21;;;;;;;4.57;3.37;;;;;;;28.52;38.30;100259.56;5548107;32;33807;-61
2023/07/23 16:54:23;;;;;;;3.95;2.90;;;;;;;28.49;40.13;100265.91;5548737;32;34377;-61
2023/07/23 16:57:26;;;;;;;4.57;3.03;;;;;;;28.52;43.90;100265.09;5548907;32;33705;-62
2023/07/23 17:00:29;;;;;;;5.00;3.05;;;;;;;28.41;38.60;100256.91;5548630;32;34355;-62
2023/07/23 17:03:31;;;;;;;5.93;3.60;;;;;;;28.30;39.46;100265.19;5548615;32;33851;-61
2023/07/23 17:06:33;;;;;;;4.90;2.87;;;;;;;28.32;38.42;100262.03;5548594;32;34597;-59
2023/07/23 17:09:38;;;;;;;4.25;2.95;;;;;;;28.30;41.54;100262.44;5548666;32;33633;-59
2023/07/23 17:12:40;;;;;;;5.70;3.55;;;;;;;28.27;39.16;100257.72;5548635;32;33676;-60
2023/07/23 17:15:44;;;;;;;5.03;3.37;;;;;;;28.22;38.85;100254.63;5548658;32;33606;-59
2023/07/23 17:18:47;;;;;;;5.20;3.62;;;;;;;28.15;37.93;100252.69;5548740;32;33636;-59
2023/07/23 17:21:49;;;;;;;5.30;3.35;;;;;;;28.13;37.83;100260.56;5548108;32;34438;-60
2023/07/23 17:24:52;;;;;;;4.65;2.95;;;;;;;28.21;37.49;100256.59;5548056;32;33654;-59
2023/07/23 17:27:54;;;;;;;5.95;3.33;;;;;;;28.17;37.54;100252.28;5548200;32;33759;-60
2023/07/23 17:31:01;;;;;;;4.28;3.03;;;;;;;28.15;37.39;100251.91;5548308;32;33667;-59
2023/07/23 17:34:03;;;;;;;5.97;3.37;;;;;;;28.07;37.17;100253.91;5548459;32;34336;-59
2023/07/23 17:37:06;;;;;;;6.15;3.20;;;;;;;28.10;37.48;100244.84;5548206;32;34375;-59
2023/07/23 17:40:08;;;;;;;6.50;3.67;;;;;;;28.06;37.97;100247.63;5548173;32;33571;-60
2023/07/23 17:43:11;;;;;;;5.22;3.17;;;;;;;28.05;37.70;100253.56;5547728;32;33690;-59
2023/07/23 17:46:13;;;;;;;5.50;3.80;;;;;;;27.98;37.81;100248.06;5547791;32;33807;-59
2023/07/23 17:49:16;;;;;;;4.95;3.60;;;;;;;27.96;38.11;100248.47;5548088;32;34228;-59
2023/07/23 17:52:18;;;;;;;4.87;3.22;;;;;;;27.92;38.50;100250.47;5548100;32;33658;-59
2023/07/23 17:55:23;;;;;;;5.78;3.80;;;;;;;27.90;38.41;100252.81;5548113;32;33256;-59
2023/07/23 17:58:25;;;;;;;5.07;3.40;;;;;;;27.85;38.59;100247.75;5547873;32;34368;-59
2023/07/23 18:01:28;;;;;;;6.78;3.83;;;;;;;27.81;38.83;100252.47;5547606;32;33642;-60
2023/07/23 18:04:33;;;;;;;6.85;3.50;;;;;;;27.76;39.35;100250.94;5547744;32;33619;-59
2023/07/23 18:07:35;;;;;;;7.53;3.72;;;;;;;27.72;39.49;100247.37;5550293;32;34380;-59
2023/07/23 18:10:41;;;;;;;6.18;3.58;;;;;;;27.66;39.64;100256.47;5550771;32;33643;-59
2023/07/23 18:13:44;;;;;;;5.35;3.35;;;;;;;27.60;40.04;100245.84;5550474;32;33721;-59
2023/07/23 18:16:46;;;;;;;4.90;3.28;;;;;;;27.56;40.17;100244.31;5550609;32;33739;-59
2023/07/23 18:19:48;;;;;;;7.60;3.50;;;;;;;27.53;40.49;100239.59;5550536;32;33730;-59
2023/07/23 18:22:51;;;;;;;8.18;3.58;;;;;;;27.46;41.06;100240.41;5550102;32;33629;-59
2023/07/23 18:25:53;;;;;;;5.78;3.40;;;;;;;27.38;41.28;100241.59;5550173;32;34348;-59
2023/07/23 18:29:07;;;;;;;5.82;3.50;;;;;;;27.30;41.65;100243.59;5550511;32;33782;-59
2023/07/23 18:32:09;;;;;;;6.28;3.90;;;;;;;27.26;41.64;100253.81;5550458;32;33721;-59
2023/07/23 18:35:11;;;;;;;5.72;3.70;;;;;;;27.19;42.33;100248.34;5550676;32;34444;-59
2023/07/23 18:38:14;;;;;;;6.28;3.95;;;;;;;27.10;42.57;100242.44;5550437;32;34238;-59
2023/07/23 18:41:16;;;;;;;5.07;3.80;;;;;;;27.04;42.73;100244.78;5550435;32;34487;-59
2023/07/23 18:44:18;;;;;;;5.40;3.58;;;;;;;27.01;43.10;100248.31;5549923;32;34325;-59
2023/07/23 18:47:21;;;;;;;6.72;4.00;;;;;;;26.91;43.45;100254.63;5550249;32;33692;-59
2023/07/23 18:50:23;;;;;;;8.60;4.22;;;;;;;26.85;43.75;100258.94;5550127;32;33719;-59
2023/07/23 18:53:26;;;;;;;5.70;3.95;;;;;;;26.79;43.75;100255.03;5550325;32;33628;-59
2023/07/23 18:56:28;;;;;;;7.03;4.00;;;;;;;26.76;44.33;100255.84;5550301;32;34344;-59
2023/07/23 18:59:31;;;;;;;5.62;3.95;;;;;;;26.69;44.96;100251.91;5550243;32;34311;-59
2023/07/23 19:02:33;;;;;;;9.18;3.90;;;;;;;26.64;45.40;100259.75;5549917;32;34363;-60
2023/07/23 19:05:36;;;;;;;6.15;4.43;;;;;;;26.60;45.26;100254.25;5549862;32;33850;-59
2023/07/23 19:08:39;;;;;;;11.68;4.60;;;;;;;26.56;45.51;100255.44;5550126;32;33175;-59
2023/07/23 19:11:42;;;;;;;8.35;4.12;;;;;;;26.51;45.85;100259.34;5550283;32;34424;-59